sensor_id;sensor_type;location;lat;lon;timestamp;P1;durP1;ratioP1;P2;durP2;ratioP2
74707;SDS011;63360;50.104;8.074;2022-10-22T00:01:55;15.80;;;7.13;;
74707;SDS011;63360;50.104;8.074;2022-10-22T00:04:22;14.23;;;6.70;;
74707;SDS011;63360;50.104;8.074;2022-10-22T00:06:48;13.65;;;6.40;;
74707;SDS011;63360;50.104;8.074;2022-10-22T00:09:14;12.40;;;5.88;;
74707;SDS011;63360;50.104;8.074;2022-10-22T00:11:41;15.88;;;6.47;;
74707;SDS011;63360;50.104;8.074;2022-10-22T00:14:07;11.23;;;5.53;;
74707;SDS011;63360;50.104;8.074;2022-10-22T00:16:34;11.70;;;5.53;;
74707;SDS011;63360;50.104;8.074;2022-10-22T00:19:00;10.98;;;5.60;;
74707;SDS011;63360;50.104;8.074;2022-10-22T00:21:27;15.15;;;6.15;;
74707;SDS011;63360;50.104;8.074;2022-10-22T00:23:54;12.93;;;5.82;;
74707;SDS011;63360;50.104;8.074;2022-10-22T00:26:21;15.73;;;5.90;;
74707;SDS011;63360;50.104;8.074;2022-10-22T00:28:48;11.32;;;5.60;;
74707;SDS011;63360;50.104;8.074;2022-10-22T00:31:14;11.93;;;5.55;;
74707;SDS011;63360;50.104;8.074;2022-10-22T00:33:41;12.02;;;5.40;;
74707;SDS011;63360;50.104;8.074;2022-10-22T00:36:07;11.48;;;5.53;;
74707;SDS011;63360;50.104;8.074;2022-10-22T00:38:34;11.33;;;5.13;;
74707;SDS011;63360;50.104;8.074;2022-10-22T00:41:00;14.55;;;5.20;;
74707;SDS011;63360;50.104;8.074;2022-10-22T00:43:31;9.95;;;4.45;;
74707;SDS011;63360;50.104;8.074;2022-10-22T00:45:58;10.43;;;4.30;;
74707;SDS011;63360;50.104;8.074;2022-10-22T00:48:26;11.65;;;4.05;;
74707;SDS011;63360;50.104;8.074;2022-10-22T00:51:04;9.47;;;4.00;;
74707;SDS011;63360;50.104;8.074;2022-10-22T00:53:34;10.73;;;4.10;;
74707;SDS011;63360;50.104;8.074;2022-10-22T00:56:03;9.88;;;4.30;;
74707;SDS011;63360;50.104;8.074;2022-10-22T00:58:32;8.30;;;4.13;;
74707;SDS011;63360;50.104;8.074;2022-10-22T01:01:02;10.05;;;4.10;;
74707;SDS011;63360;50.104;8.074;2022-10-22T01:03:31;9.53;;;3.80;;
74707;SDS011;63360;50.104;8.074;2022-10-22T01:05:58;7.72;;;3.25;;
74707;SDS011;63360;50.104;8.074;2022-10-22T01:08:45;7.38;;;3.50;;
74707;SDS011;63360;50.104;8.074;2022-10-22T01:11:21;8.57;;;3.53;;
74707;SDS011;63360;50.104;8.074;2022-10-22T01:13:55;7.28;;;3.70;;
74707;SDS011;63360;50.104;8.074;2022-10-22T01:27:35;6.95;;;2.70;;
74707;SDS011;63360;50.104;8.074;2022-10-22T01:30:10;7.63;;;3.23;;
74707;SDS011;63360;50.104;8.074;2022-10-22T01:32:40;9.05;;;3.00;;
74707;SDS011;63360;50.104;8.074;2022-10-22T01:35:13;9.02;;;3.85;;
74707;SDS011;63360;50.104;8.074;2022-10-22T01:37:47;10.20;;;3.75;;
74707;SDS011;63360;50.104;8.074;2022-10-22T01:40:19;9.88;;;4.38;;
74707;SDS011;63360;50.104;8.074;2022-10-22T01:42:54;10.00;;;4.40;;
74707;SDS011;63360;50.104;8.074;2022-10-22T01:45:27;10.50;;;4.32;;
74707;SDS011;63360;50.104;8.074;2022-10-22T01:50:58;10.63;;;4.68;;
74707;SDS011;63360;50.104;8.074;2022-10-22T01:56:38;9.47;;;4.50;;
74707;SDS011;63360;50.104;8.074;2022-10-22T02:02:25;10.30;;;4.65;;
74707;SDS011;63360;50.104;8.074;2022-10-22T02:08:02;10.40;;;4.85;;
74707;SDS011;63360;50.104;8.074;2022-10-22T02:10:35;10.53;;;4.90;;
74707;SDS011;63360;50.104;8.074;2022-10-22T02:13:03;8.45;;;4.40;;
74707;SDS011;63360;50.104;8.074;2022-10-22T02:15:33;11.30;;;4.93;;
74707;SDS011;63360;50.104;8.074;2022-10-22T02:18:03;10.98;;;4.55;;
74707;SDS011;63360;50.104;8.074;2022-10-22T02:20:34;9.07;;;4.10;;
74707;SDS011;63360;50.104;8.074;2022-10-22T02:23:03;9.87;;;4.03;;
74707;SDS011;63360;50.104;8.074;2022-10-22T02:25:31;7.88;;;4.43;;
74707;SDS011;63360;50.104;8.074;2022-10-22T02:28:15;9.55;;;4.70;;
74707;SDS011;63360;50.104;8.074;2022-10-22T02:30:51;18.25;;;4.97;;
74707;SDS011;63360;50.104;8.074;2022-10-22T02:33:21;9.68;;;4.72;;
74707;SDS011;63360;50.104;8.074;2022-10-22T02:35:51;7.80;;;4.70;;
74707;SDS011;63360;50.104;8.074;2022-10-22T02:38:19;8.88;;;4.30;;
74707;SDS011;63360;50.104;8.074;2022-10-22T02:40:49;10.65;;;4.45;;
74707;SDS011;63360;50.104;8.074;2022-10-22T02:43:16;11.60;;;4.20;;
74707;SDS011;63360;50.104;8.074;2022-10-22T02:45:43;7.57;;;4.25;;
74707;SDS011;63360;50.104;8.074;2022-10-22T02:48:10;8.63;;;4.27;;
74707;SDS011;63360;50.104;8.074;2022-10-22T02:50:37;8.90;;;4.68;;
74707;SDS011;63360;50.104;8.074;2022-10-22T02:53:03;6.30;;;4.05;;
74707;SDS011;63360;50.104;8.074;2022-10-22T02:55:30;7.57;;;3.95;;
74707;SDS011;63360;50.104;8.074;2022-10-22T02:57:56;10.55;;;4.32;;
74707;SDS011;63360;50.104;8.074;2022-10-22T03:00:23;7.47;;;4.27;;
74707;SDS011;63360;50.104;8.074;2022-10-22T03:02:49;10.20;;;3.70;;
74707;SDS011;63360;50.104;8.074;2022-10-22T03:05:15;7.22;;;4.15;;
74707;SDS011;63360;50.104;8.074;2022-10-22T03:07:42;10.07;;;3.40;;
74707;SDS011;63360;50.104;8.074;2022-10-22T03:10:08;7.13;;;3.60;;
74707;SDS011;63360;50.104;8.074;2022-10-22T03:12:35;5.63;;;3.03;;
74707;SDS011;63360;50.104;8.074;2022-10-22T03:15:01;6.13;;;2.92;;
74707;SDS011;63360;50.104;8.074;2022-10-22T03:17:28;8.50;;;3.40;;
74707;SDS011;63360;50.104;8.074;2022-10-22T03:19:54;6.03;;;3.10;;
74707;SDS011;63360;50.104;8.074;2022-10-22T03:22:22;5.65;;;2.78;;
74707;SDS011;63360;50.104;8.074;2022-10-22T03:24:53;7.70;;;3.90;;
74707;SDS011;63360;50.104;8.074;2022-10-22T03:27:23;5.00;;;3.05;;
74707;SDS011;63360;50.104;8.074;2022-10-22T03:29:53;7.55;;;3.10;;
74707;SDS011;63360;50.104;8.074;2022-10-22T03:32:21;9.10;;;3.28;;
74707;SDS011;63360;50.104;8.074;2022-10-22T03:34:48;6.88;;;3.40;;
74707;SDS011;63360;50.104;8.074;2022-10-22T03:37:14;9.53;;;3.20;;
74707;SDS011;63360;50.104;8.074;2022-10-22T03:39:41;6.15;;;2.90;;
74707;SDS011;63360;50.104;8.074;2022-10-22T03:42:08;8.18;;;3.40;;
74707;SDS011;63360;50.104;8.074;2022-10-22T03:44:35;9.25;;;3.20;;
74707;SDS011;63360;50.104;8.074;2022-10-22T03:47:03;7.82;;;3.63;;
74707;SDS011;63360;50.104;8.074;2022-10-22T03:49:30;14.20;;;3.73;;
74707;SDS011;63360;50.104;8.074;2022-10-22T03:51:56;6.25;;;3.10;;
74707;SDS011;63360;50.104;8.074;2022-10-22T03:54:23;12.00;;;3.25;;
74707;SDS011;63360;50.104;8.074;2022-10-22T03:56:49;7.13;;;3.10;;
74707;SDS011;63360;50.104;8.074;2022-10-22T03:59:16;9.18;;;2.72;;
74707;SDS011;63360;50.104;8.074;2022-10-22T04:01:43;5.57;;;2.80;;
74707;SDS011;63360;50.104;8.074;2022-10-22T04:04:09;6.10;;;3.33;;
74707;SDS011;63360;50.104;8.074;2022-10-22T04:06:35;7.70;;;3.08;;
74707;SDS011;63360;50.104;8.074;2022-10-22T04:09:02;13.82;;;3.53;;
74707;SDS011;63360;50.104;8.074;2022-10-22T04:11:28;7.57;;;3.00;;
74707;SDS011;63360;50.104;8.074;2022-10-22T04:13:55;9.00;;;2.93;;
74707;SDS011;63360;50.104;8.074;2022-10-22T04:16:21;4.88;;;2.95;;
74707;SDS011;63360;50.104;8.074;2022-10-22T04:18:52;7.03;;;3.10;;
74707;SDS011;63360;50.104;8.074;2022-10-22T04:21:19;10.68;;;3.30;;
74707;SDS011;63360;50.104;8.074;2022-10-22T04:23:46;7.10;;;3.05;;
74707;SDS011;63360;50.104;8.074;2022-10-22T04:26:15;6.73;;;2.80;;
74707;SDS011;63360;50.104;8.074;2022-10-22T04:28:42;6.13;;;3.08;;
74707;SDS011;63360;50.104;8.074;2022-10-22T04:31:10;7.47;;;3.33;;
74707;SDS011;63360;50.104;8.074;2022-10-22T04:33:38;6.13;;;3.00;;
74707;SDS011;63360;50.104;8.074;2022-10-22T04:36:05;7.18;;;2.95;;
74707;SDS011;63360;50.104;8.074;2022-10-22T04:38:33;7.43;;;2.77;;
74707;SDS011;63360;50.104;8.074;2022-10-22T04:43:35;17.92;;;8.00;;
74707;SDS011;63360;50.104;8.074;2022-10-22T04:46:02;10.02;;;5.20;;
74707;SDS011;63360;50.104;8.074;2022-10-22T04:48:29;8.48;;;4.20;;
74707;SDS011;63360;50.104;8.074;2022-10-22T04:50:56;7.30;;;3.73;;
74707;SDS011;63360;50.104;8.074;2022-10-22T04:53:24;8.40;;;4.15;;
74707;SDS011;63360;50.104;8.074;2022-10-22T04:55:50;8.63;;;3.85;;
74707;SDS011;63360;50.104;8.074;2022-10-22T04:58:17;9.40;;;3.78;;
74707;SDS011;63360;50.104;8.074;2022-10-22T05:00:43;10.07;;;3.78;;
74707;SDS011;63360;50.104;8.074;2022-10-22T05:03:10;10.63;;;4.20;;
74707;SDS011;63360;50.104;8.074;2022-10-22T05:05:36;8.55;;;4.60;;
74707;SDS011;63360;50.104;8.074;2022-10-22T05:08:02;8.70;;;4.15;;
74707;SDS011;63360;50.104;8.074;2022-10-22T05:10:29;7.28;;;3.90;;
74707;SDS011;63360;50.104;8.074;2022-10-22T05:12:55;5.30;;;3.20;;
74707;SDS011;63360;50.104;8.074;2022-10-22T05:15:22;9.47;;;4.30;;
74707;SDS011;63360;50.104;8.074;2022-10-22T05:17:48;8.73;;;4.15;;
74707;SDS011;63360;50.104;8.074;2022-10-22T05:20:15;9.88;;;4.13;;
74707;SDS011;63360;50.104;8.074;2022-10-22T05:22:41;8.77;;;3.92;;
74707;SDS011;63360;50.104;8.074;2022-10-22T05:25:07;10.23;;;4.10;;
74707;SDS011;63360;50.104;8.074;2022-10-22T05:27:34;8.33;;;4.47;;
74707;SDS011;63360;50.104;8.074;2022-10-22T05:30:00;7.88;;;4.05;;
74707;SDS011;63360;50.104;8.074;2022-10-22T05:32:27;10.02;;;4.25;;
74707;SDS011;63360;50.104;8.074;2022-10-22T05:34:53;7.03;;;3.42;;
74707;SDS011;63360;50.104;8.074;2022-10-22T05:37:19;8.68;;;3.45;;
74707;SDS011;63360;50.104;8.074;2022-10-22T05:39:46;6.90;;;3.50;;
74707;SDS011;63360;50.104;8.074;2022-10-22T05:42:12;9.02;;;3.55;;
74707;SDS011;63360;50.104;8.074;2022-10-22T05:44:39;6.20;;;3.45;;
74707;SDS011;63360;50.104;8.074;2022-10-22T05:47:05;7.22;;;3.17;;
74707;SDS011;63360;50.104;8.074;2022-10-22T05:49:32;5.85;;;3.00;;
74707;SDS011;63360;50.104;8.074;2022-10-22T05:51:58;6.93;;;3.27;;
74707;SDS011;63360;50.104;8.074;2022-10-22T05:54:25;9.90;;;3.58;;
74707;SDS011;63360;50.104;8.074;2022-10-22T05:56:51;5.43;;;3.13;;
74707;SDS011;63360;50.104;8.074;2022-10-22T05:59:18;10.73;;;3.38;;
74707;SDS011;63360;50.104;8.074;2022-10-22T06:01:44;9.65;;;3.95;;
74707;SDS011;63360;50.104;8.074;2022-10-22T06:04:11;7.63;;;3.10;;
74707;SDS011;63360;50.104;8.074;2022-10-22T06:06:40;6.90;;;2.75;;
74707;SDS011;63360;50.104;8.074;2022-10-22T06:09:12;10.00;;;3.35;;
74707;SDS011;63360;50.104;8.074;2022-10-22T06:11:53;6.60;;;2.97;;
74707;SDS011;63360;50.104;8.074;2022-10-22T06:14:21;6.97;;;2.97;;
74707;SDS011;63360;50.104;8.074;2022-10-22T06:16:48;10.13;;;3.30;;
74707;SDS011;63360;50.104;8.074;2022-10-22T06:19:16;12.63;;;3.90;;
74707;SDS011;63360;50.104;8.074;2022-10-22T06:21:45;5.75;;;2.95;;
74707;SDS011;63360;50.104;8.074;2022-10-22T06:24:12;8.85;;;3.40;;
74707;SDS011;63360;50.104;8.074;2022-10-22T06:26:39;6.93;;;3.17;;
74707;SDS011;63360;50.104;8.074;2022-10-22T06:29:06;11.53;;;3.23;;
74707;SDS011;63360;50.104;8.074;2022-10-22T06:31:33;5.88;;;2.65;;
74707;SDS011;63360;50.104;8.074;2022-10-22T06:34:03;7.40;;;3.08;;
74707;SDS011;63360;50.104;8.074;2022-10-22T06:36:30;6.82;;;3.00;;
74707;SDS011;63360;50.104;8.074;2022-10-22T06:38:57;7.88;;;3.15;;
74707;SDS011;63360;50.104;8.074;2022-10-22T06:41:23;7.40;;;3.17;;
74707;SDS011;63360;50.104;8.074;2022-10-22T06:43:54;7.35;;;3.28;;
74707;SDS011;63360;50.104;8.074;2022-10-22T06:46:22;6.63;;;3.30;;
74707;SDS011;63360;50.104;8.074;2022-10-22T06:48:50;5.70;;;3.17;;
74707;SDS011;63360;50.104;8.074;2022-10-22T06:51:19;7.90;;;3.72;;
74707;SDS011;63360;50.104;8.074;2022-10-22T06:53:46;6.73;;;3.43;;
74707;SDS011;63360;50.104;8.074;2022-10-22T06:56:15;6.20;;;3.30;;
74707;SDS011;63360;50.104;8.074;2022-10-22T06:58:47;8.63;;;4.00;;
74707;SDS011;63360;50.104;8.074;2022-10-22T07:01:16;7.13;;;3.38;;
74707;SDS011;63360;50.104;8.074;2022-10-22T07:03:44;7.38;;;3.60;;
74707;SDS011;63360;50.104;8.074;2022-10-22T07:06:11;10.80;;;3.80;;
74707;SDS011;63360;50.104;8.074;2022-10-22T07:08:39;9.52;;;3.70;;
74707;SDS011;63360;50.104;8.074;2022-10-22T07:11:10;7.20;;;3.05;;
74707;SDS011;63360;50.104;8.074;2022-10-22T07:13:38;5.60;;;2.92;;
74707;SDS011;63360;50.104;8.074;2022-10-22T07:16:06;7.18;;;3.60;;
74707;SDS011;63360;50.104;8.074;2022-10-22T07:18:33;5.30;;;2.90;;
74707;SDS011;63360;50.104;8.074;2022-10-22T07:21:00;7.95;;;3.35;;
74707;SDS011;63360;50.104;8.074;2022-10-22T07:23:27;7.25;;;3.40;;
74707;SDS011;63360;50.104;8.074;2022-10-22T07:25:54;5.90;;;2.80;;
74707;SDS011;63360;50.104;8.074;2022-10-22T07:28:26;4.68;;;2.72;;
74707;SDS011;63360;50.104;8.074;2022-10-22T07:30:53;8.77;;;3.20;;
74707;SDS011;63360;50.104;8.074;2022-10-22T07:33:20;8.45;;;2.90;;
74707;SDS011;63360;50.104;8.074;2022-10-22T07:35:46;5.20;;;2.70;;
74707;SDS011;63360;50.104;8.074;2022-10-22T07:38:13;7.18;;;2.70;;
74707;SDS011;63360;50.104;8.074;2022-10-22T07:40:39;6.28;;;2.80;;
74707;SDS011;63360;50.104;8.074;2022-10-22T07:43:06;4.30;;;2.67;;
74707;SDS011;63360;50.104;8.074;2022-10-22T07:45:32;5.93;;;2.50;;
74707;SDS011;63360;50.104;8.074;2022-10-22T07:47:59;6.28;;;2.38;;
74707;SDS011;63360;50.104;8.074;2022-10-22T07:50:25;5.90;;;2.47;;
74707;SDS011;63360;50.104;8.074;2022-10-22T07:52:52;9.15;;;2.40;;
74707;SDS011;63360;50.104;8.074;2022-10-22T07:55:22;4.17;;;2.47;;
74707;SDS011;63360;50.104;8.074;2022-10-22T07:57:49;4.65;;;2.33;;
74707;SDS011;63360;50.104;8.074;2022-10-22T08:00:15;7.68;;;1.95;;
74707;SDS011;63360;50.104;8.074;2022-10-22T08:02:46;4.22;;;2.00;;
74707;SDS011;63360;50.104;8.074;2022-10-22T08:05:13;5.57;;;2.00;;
74707;SDS011;63360;50.104;8.074;2022-10-22T08:07:39;9.67;;;2.10;;
74707;SDS011;63360;50.104;8.074;2022-10-22T08:10:06;4.97;;;2.20;;
74707;SDS011;63360;50.104;8.074;2022-10-22T08:12:34;8.63;;;2.28;;
74707;SDS011;63360;50.104;8.074;2022-10-22T08:15:00;6.93;;;2.30;;
74707;SDS011;63360;50.104;8.074;2022-10-22T08:17:27;7.15;;;2.50;;
74707;SDS011;63360;50.104;8.074;2022-10-22T08:19:53;5.50;;;2.37;;
74707;SDS011;63360;50.104;8.074;2022-10-22T08:22:20;4.88;;;2.10;;
74707;SDS011;63360;50.104;8.074;2022-10-22T08:24:46;4.53;;;1.80;;
74707;SDS011;63360;50.104;8.074;2022-10-22T08:27:13;5.90;;;1.35;;
74707;SDS011;63360;50.104;8.074;2022-10-22T08:29:40;7.18;;;1.60;;
74707;SDS011;63360;50.104;8.074;2022-10-22T08:32:06;5.93;;;1.87;;
74707;SDS011;63360;50.104;8.074;2022-10-22T08:34:33;5.70;;;2.00;;
74707;SDS011;63360;50.104;8.074;2022-10-22T08:36:59;5.95;;;1.50;;
74707;SDS011;63360;50.104;8.074;2022-10-22T08:39:25;5.30;;;1.58;;
74707;SDS011;63360;50.104;8.074;2022-10-22T08:49:47;5.97;;;2.00;;
74707;SDS011;63360;50.104;8.074;2022-10-22T08:52:15;5.75;;;1.90;;
74707;SDS011;63360;50.104;8.074;2022-10-22T08:54:50;7.38;;;2.22;;
74707;SDS011;63360;50.104;8.074;2022-10-22T08:57:20;4.33;;;1.93;;
74707;SDS011;63360;50.104;8.074;2022-10-22T09:00:19;6.07;;;1.90;;
74707;SDS011;63360;50.104;8.074;2022-10-22T09:05:25;4.47;;;1.70;;
74707;SDS011;63360;50.104;8.074;2022-10-22T09:07:53;5.82;;;2.03;;
74707;SDS011;63360;50.104;8.074;2022-10-22T09:10:21;5.10;;;2.00;;
74707;SDS011;63360;50.104;8.074;2022-10-22T09:12:52;7.93;;;1.52;;
74707;SDS011;63360;50.104;8.074;2022-10-22T09:15:19;7.38;;;2.10;;
74707;SDS011;63360;50.104;8.074;2022-10-22T09:20:52;5.38;;;2.00;;
74707;SDS011;63360;50.104;8.074;2022-10-22T09:26:12;5.45;;;1.60;;
74707;SDS011;63360;50.104;8.074;2022-10-22T09:28:40;9.32;;;1.90;;
74707;SDS011;63360;50.104;8.074;2022-10-22T09:31:11;4.32;;;1.60;;
74707;SDS011;63360;50.104;8.074;2022-10-22T09:33:39;2.92;;;1.35;;
74707;SDS011;63360;50.104;8.074;2022-10-22T09:36:07;5.30;;;1.50;;
74707;SDS011;63360;50.104;8.074;2022-10-22T09:38:44;4.50;;;1.85;;
74707;SDS011;63360;50.104;8.074;2022-10-22T09:41:13;6.60;;;1.38;;
74707;SDS011;63360;50.104;8.074;2022-10-22T09:43:40;4.50;;;1.38;;
74707;SDS011;63360;50.104;8.074;2022-10-22T09:46:07;4.75;;;1.33;;
74707;SDS011;63360;50.104;8.074;2022-10-22T09:48:42;4.03;;;1.30;;
74707;SDS011;63360;50.104;8.074;2022-10-22T09:51:19;6.47;;;1.10;;
74707;SDS011;63360;50.104;8.074;2022-10-22T09:53:57;4.63;;;1.10;;
74707;SDS011;63360;50.104;8.074;2022-10-22T09:56:36;5.30;;;0.90;;
74707;SDS011;63360;50.104;8.074;2022-10-22T09:59:16;6.35;;;1.08;;
74707;SDS011;63360;50.104;8.074;2022-10-22T10:01:44;5.90;;;1.00;;
74707;SDS011;63360;50.104;8.074;2022-10-22T10:04:11;5.30;;;0.90;;
74707;SDS011;63360;50.104;8.074;2022-10-22T10:06:41;4.03;;;0.80;;
74707;SDS011;63360;50.104;8.074;2022-10-22T10:09:14;6.15;;;1.10;;
74707;SDS011;63360;50.104;8.074;2022-10-22T10:20:12;6.00;;;1.00;;
74707;SDS011;63360;50.104;8.074;2022-10-22T10:22:47;4.85;;;1.00;;
74707;SDS011;63360;50.104;8.074;2022-10-22T10:25:30;4.10;;;0.70;;
74707;SDS011;63360;50.104;8.074;2022-10-22T10:30:46;3.85;;;1.00;;
74707;SDS011;63360;50.104;8.074;2022-10-22T10:33:26;3.63;;;0.98;;
74707;SDS011;63360;50.104;8.074;2022-10-22T10:36:01;6.68;;;1.00;;
74707;SDS011;63360;50.104;8.074;2022-10-22T10:41:18;4.13;;;1.03;;
74707;SDS011;63360;50.104;8.074;2022-10-22T10:49:18;3.92;;;0.77;;
74707;SDS011;63360;50.104;8.074;2022-10-22T10:51:52;4.05;;;0.73;;
74707;SDS011;63360;50.104;8.074;2022-10-22T10:57:38;3.75;;;0.82;;
74707;SDS011;63360;50.104;8.074;2022-10-22T11:00:24;5.50;;;1.52;;
74707;SDS011;63360;50.104;8.074;2022-10-22T11:05:47;3.05;;;0.70;;
74707;SDS011;63360;50.104;8.074;2022-10-22T11:11:06;1.73;;;0.60;;
74707;SDS011;63360;50.104;8.074;2022-10-22T11:16:22;2.45;;;0.63;;
74707;SDS011;63360;50.104;8.074;2022-10-22T11:29:52;3.78;;;0.60;;
74707;SDS011;63360;50.104;8.074;2022-10-22T11:32:24;3.65;;;0.80;;
74707;SDS011;63360;50.104;8.074;2022-10-22T11:34:53;3.23;;;0.67;;
74707;SDS011;63360;50.104;8.074;2022-10-22T11:37:23;8.35;;;0.70;;
74707;SDS011;63360;50.104;8.074;2022-10-22T11:39:53;5.13;;;0.70;;
74707;SDS011;63360;50.104;8.074;2022-10-22T11:42:30;2.45;;;0.50;;
74707;SDS011;63360;50.104;8.074;2022-10-22T11:47:28;4.13;;;0.70;;
74707;SDS011;63360;50.104;8.074;2022-10-22T11:50:01;6.72;;;0.80;;
74707;SDS011;63360;50.104;8.074;2022-10-22T11:52:44;3.13;;;0.50;;
74707;SDS011;63360;50.104;8.074;2022-10-22T11:55:31;4.03;;;0.85;;
74707;SDS011;63360;50.104;8.074;2022-10-22T11:58:30;1.70;;;0.60;;
74707;SDS011;63360;50.104;8.074;2022-10-22T12:06:05;6.53;;;0.80;;
74707;SDS011;63360;50.104;8.074;2022-10-22T12:11:25;3.55;;;0.50;;
74707;SDS011;63360;50.104;8.074;2022-10-22T12:16:55;4.60;;;0.65;;
74707;SDS011;63360;50.104;8.074;2022-10-22T12:19:37;4.28;;;0.70;;
74707;SDS011;63360;50.104;8.074;2022-10-22T12:24:55;3.95;;;0.60;;
74707;SDS011;63360;50.104;8.074;2022-10-22T12:27:34;4.80;;;0.70;;
74707;SDS011;63360;50.104;8.074;2022-10-22T12:30:14;7.85;;;0.75;;
74707;SDS011;63360;50.104;8.074;2022-10-22T12:32:43;3.60;;;0.55;;
74707;SDS011;63360;50.104;8.074;2022-10-22T12:35:15;3.15;;;0.60;;
74707;SDS011;63360;50.104;8.074;2022-10-22T12:37:43;4.97;;;0.60;;
74707;SDS011;63360;50.104;8.074;2022-10-22T12:42:46;3.05;;;0.50;;
74707;SDS011;63360;50.104;8.074;2022-10-22T12:45:17;2.08;;;0.60;;
74707;SDS011;63360;50.104;8.074;2022-10-22T12:47:45;6.28;;;0.80;;
74707;SDS011;63360;50.104;8.074;2022-10-22T12:50:22;3.83;;;0.65;;
74707;SDS011;63360;50.104;8.074;2022-10-22T12:52:56;4.57;;;0.40;;
74707;SDS011;63360;50.104;8.074;2022-10-22T12:55:22;2.97;;;0.55;;
74707;SDS011;63360;50.104;8.074;2022-10-22T12:57:51;6.38;;;1.08;;
74707;SDS011;63360;50.104;8.074;2022-10-22T13:00:18;3.58;;;0.60;;
74707;SDS011;63360;50.104;8.074;2022-10-22T13:02:59;5.70;;;0.82;;
74707;SDS011;63360;50.104;8.074;2022-10-22T13:05:30;4.40;;;0.57;;
74707;SDS011;63360;50.104;8.074;2022-10-22T13:08:11;4.57;;;0.80;;
74707;SDS011;63360;50.104;8.074;2022-10-22T13:10:48;5.18;;;0.70;;
74707;SDS011;63360;50.104;8.074;2022-10-22T13:13:29;3.80;;;0.50;;
74707;SDS011;63360;50.104;8.074;2022-10-22T13:15:56;5.05;;;0.43;;
74707;SDS011;63360;50.104;8.074;2022-10-22T13:18:50;3.10;;;0.50;;
74707;SDS011;63360;50.104;8.074;2022-10-22T13:21:35;8.73;;;0.50;;
74707;SDS011;63360;50.104;8.074;2022-10-22T13:24:25;5.47;;;0.60;;
74707;SDS011;63360;50.104;8.074;2022-10-22T13:26:51;2.92;;;0.40;;
74707;SDS011;63360;50.104;8.074;2022-10-22T13:29:20;6.07;;;0.50;;
74707;SDS011;63360;50.104;8.074;2022-10-22T13:31:51;7.40;;;0.40;;
74707;SDS011;63360;50.104;8.074;2022-10-22T13:34:22;6.00;;;0.47;;
74707;SDS011;63360;50.104;8.074;2022-10-22T13:36:50;5.00;;;0.50;;
74707;SDS011;63360;50.104;8.074;2022-10-22T13:39:18;5.40;;;0.40;;
74707;SDS011;63360;50.104;8.074;2022-10-22T13:41:49;7.13;;;0.57;;
74707;SDS011;63360;50.104;8.074;2022-10-22T13:44:16;3.33;;;0.40;;
74707;SDS011;63360;50.104;8.074;2022-10-22T13:46:44;3.90;;;0.43;;
74707;SDS011;63360;50.104;8.074;2022-10-22T13:49:17;4.30;;;0.40;;
74707;SDS011;63360;50.104;8.074;2022-10-22T13:51:45;8.68;;;0.52;;
74707;SDS011;63360;50.104;8.074;2022-10-22T13:54:13;2.88;;;0.52;;
74707;SDS011;63360;50.104;8.074;2022-10-22T13:56:43;3.80;;;0.40;;
74707;SDS011;63360;50.104;8.074;2022-10-22T13:59:09;4.78;;;0.50;;
74707;SDS011;63360;50.104;8.074;2022-10-22T14:01:36;2.33;;;0.50;;
74707;SDS011;63360;50.104;8.074;2022-10-22T14:04:04;4.72;;;0.40;;
74707;SDS011;63360;50.104;8.074;2022-10-22T14:06:33;4.38;;;0.50;;
74707;SDS011;63360;50.104;8.074;2022-10-22T14:09:04;4.53;;;0.50;;
74707;SDS011;63360;50.104;8.074;2022-10-22T14:11:36;4.50;;;0.60;;
74707;SDS011;63360;50.104;8.074;2022-10-22T14:14:02;3.80;;;0.40;;
74707;SDS011;63360;50.104;8.074;2022-10-22T14:16:30;7.88;;;0.50;;
74707;SDS011;63360;50.104;8.074;2022-10-22T14:18:58;2.10;;;0.45;;
74707;SDS011;63360;50.104;8.074;2022-10-22T14:21:25;7.57;;;0.70;;
74707;SDS011;63360;50.104;8.074;2022-10-22T14:23:54;3.75;;;0.52;;
74707;SDS011;63360;50.104;8.074;2022-10-22T14:26:22;5.05;;;0.50;;
74707;SDS011;63360;50.104;8.074;2022-10-22T14:28:56;5.47;;;0.55;;
74707;SDS011;63360;50.104;8.074;2022-10-22T14:31:39;8.48;;;0.82;;
74707;SDS011;63360;50.104;8.074;2022-10-22T14:34:09;4.50;;;0.50;;
74707;SDS011;63360;50.104;8.074;2022-10-22T14:36:37;6.28;;;0.60;;
74707;SDS011;63360;50.104;8.074;2022-10-22T14:39:03;6.53;;;1.00;;
74707;SDS011;63360;50.104;8.074;2022-10-22T14:41:30;4.68;;;0.45;;
74707;SDS011;63360;50.104;8.074;2022-10-22T14:43:56;4.38;;;0.50;;
74707;SDS011;63360;50.104;8.074;2022-10-22T14:46:24;3.90;;;0.50;;
74707;SDS011;63360;50.104;8.074;2022-10-22T14:48:51;3.95;;;0.40;;
74707;SDS011;63360;50.104;8.074;2022-10-22T14:51:18;4.32;;;0.40;;
74707;SDS011;63360;50.104;8.074;2022-10-22T14:53:46;3.22;;;0.40;;
74707;SDS011;63360;50.104;8.074;2022-10-22T14:56:14;4.05;;;0.52;;
74707;SDS011;63360;50.104;8.074;2022-10-22T14:58:42;3.70;;;0.50;;
74707;SDS011;63360;50.104;8.074;2022-10-22T15:01:08;2.70;;;0.40;;
74707;SDS011;63360;50.104;8.074;2022-10-22T15:03:35;4.22;;;0.70;;
74707;SDS011;63360;50.104;8.074;2022-10-22T15:06:02;5.35;;;0.52;;
74707;SDS011;63360;50.104;8.074;2022-10-22T15:08:29;4.85;;;0.57;;
74707;SDS011;63360;50.104;8.074;2022-10-22T15:10:56;5.63;;;0.53;;
74707;SDS011;63360;50.104;8.074;2022-10-22T15:13:23;4.18;;;0.60;;
74707;SDS011;63360;50.104;8.074;2022-10-22T15:15:51;5.40;;;0.55;;
74707;SDS011;63360;50.104;8.074;2022-10-22T15:18:17;6.55;;;0.60;;
74707;SDS011;63360;50.104;8.074;2022-10-22T15:20:43;7.63;;;0.70;;
74707;SDS011;63360;50.104;8.074;2022-10-22T15:23:10;5.10;;;0.70;;
74707;SDS011;63360;50.104;8.074;2022-10-22T15:25:36;3.35;;;0.70;;
74707;SDS011;63360;50.104;8.074;2022-10-22T15:28:03;14.43;;;1.27;;
74707;SDS011;63360;50.104;8.074;2022-10-22T15:30:35;6.13;;;1.00;;
74707;SDS011;63360;50.104;8.074;2022-10-22T15:33:01;9.50;;;1.30;;
74707;SDS011;63360;50.104;8.074;2022-10-22T15:35:28;5.13;;;1.00;;
74707;SDS011;63360;50.104;8.074;2022-10-22T15:37:54;5.82;;;1.25;;
74707;SDS011;63360;50.104;8.074;2022-10-22T15:40:20;4.35;;;1.33;;
74707;SDS011;63360;50.104;8.074;2022-10-22T15:42:47;6.80;;;1.35;;
74707;SDS011;63360;50.104;8.074;2022-10-22T15:45:13;2.95;;;1.00;;
74707;SDS011;63360;50.104;8.074;2022-10-22T15:47:43;7.63;;;1.63;;
74707;SDS011;63360;50.104;8.074;2022-10-22T15:50:13;7.57;;;1.80;;
74707;SDS011;63360;50.104;8.074;2022-10-22T15:52:39;7.10;;;2.47;;
74707;SDS011;63360;50.104;8.074;2022-10-22T15:55:06;9.60;;;2.20;;
74707;SDS011;63360;50.104;8.074;2022-10-22T15:57:36;6.15;;;1.38;;
74707;SDS011;63360;50.104;8.074;2022-10-22T16:00:04;7.47;;;1.40;;
74707;SDS011;63360;50.104;8.074;2022-10-22T16:02:31;7.40;;;1.27;;
74707;SDS011;63360;50.104;8.074;2022-10-22T16:04:58;4.05;;;1.00;;
74707;SDS011;63360;50.104;8.074;2022-10-22T16:07:25;9.10;;;1.50;;
74707;SDS011;63360;50.104;8.074;2022-10-22T16:09:57;5.18;;;1.30;;
74707;SDS011;63360;50.104;8.074;2022-10-22T16:12:25;6.97;;;1.63;;
74707;SDS011;63360;50.104;8.074;2022-10-22T16:14:51;6.35;;;1.30;;
74707;SDS011;63360;50.104;8.074;2022-10-22T16:17:18;6.63;;;1.42;;
74707;SDS011;63360;50.104;8.074;2022-10-22T16:19:44;6.78;;;1.35;;
74707;SDS011;63360;50.104;8.074;2022-10-22T16:22:12;6.55;;;1.48;;
74707;SDS011;63360;50.104;8.074;2022-10-22T16:24:40;5.93;;;1.80;;
74707;SDS011;63360;50.104;8.074;2022-10-22T16:27:07;4.25;;;1.27;;
74707;SDS011;63360;50.104;8.074;2022-10-22T16:29:35;8.15;;;1.42;;
74707;SDS011;63360;50.104;8.074;2022-10-22T16:32:02;3.47;;;1.25;;
74707;SDS011;63360;50.104;8.074;2022-10-22T16:34:29;5.10;;;1.80;;
74707;SDS011;63360;50.104;8.074;2022-10-22T16:36:55;6.13;;;1.80;;
74707;SDS011;63360;50.104;8.074;2022-10-22T16:39:22;8.98;;;3.55;;
74707;SDS011;63360;50.104;8.074;2022-10-22T16:41:48;9.60;;;4.55;;